createdAt,value
2018-06-18T00:02:55.747Z,17.30
2018-06-18T00:05:24.201Z,17.20
2018-06-18T00:07:52.665Z,17.10
2018-06-18T00:10:21.064Z,17.00
2018-06-18T00:12:49.498Z,17.00
2018-06-18T00:15:17.910Z,17.10
2018-06-18T00:17:46.333Z,17.00
2018-06-18T00:22:42.862Z,16.90
2018-06-18T00:25:11.272Z,17.00
2018-06-18T00:27:39.695Z,17.00
2018-06-18T00:30:08.119Z,17.00
2018-06-18T00:32:36.564Z,16.90
2018-06-18T00:35:04.989Z,16.90
2018-06-18T00:37:33.448Z,16.80
2018-06-18T00:42:29.966Z,16.90
2018-06-18T00:44:58.368Z,16.90
2018-06-18T00:49:54.890Z,17.00
2018-06-18T00:52:23.293Z,17.10
2018-06-18T00:54:51.731Z,17.20
2018-06-18T00:57:20.148Z,17.20
2018-06-18T01:02:16.676Z,17.10
2018-06-18T01:04:45.092Z,17.00
2018-06-18T01:07:13.512Z,17.00
2018-06-18T01:09:41.941Z,16.90
2018-06-18T01:14:38.437Z,17.10
2018-06-18T01:17:06.858Z,17.10
2018-06-18T01:22:03.411Z,17.00
2018-06-18T01:27:05.525Z,17.00
2018-06-18T01:29:33.980Z,17.10
2018-06-18T01:32:02.388Z,17.10
2018-06-18T01:34:30.801Z,17.10
2018-06-18T01:36:59.203Z,17.00
2018-06-18T01:41:55.700Z,16.90
2018-06-18T01:44:24.120Z,17.00
2018-06-18T01:49:20.617Z,16.90
2018-06-18T01:51:49.049Z,17.00
2018-06-18T01:56:45.570Z,16.90
2018-06-18T01:59:13.968Z,16.80
2018-06-18T02:01:42.461Z,16.80
2018-06-18T02:06:38.969Z,16.90
2018-06-18T02:09:10.809Z,16.90
2018-06-18T02:11:39.253Z,16.90
2018-06-18T02:14:08.000Z,17.00
2018-06-18T02:16:36.417Z,17.00
2018-06-18T02:21:33.133Z,17.20
2018-06-18T02:24:01.536Z,17.10
2018-06-18T02:29:03.342Z,17.10
2018-06-18T02:31:37.100Z,17.00
2018-06-18T02:34:10.876Z,17.00
2018-06-18T02:36:44.538Z,16.90
2018-06-18T02:39:14.605Z,16.90
2018-06-18T02:41:44.217Z,17.00
2018-06-18T02:44:12.992Z,17.00
2018-06-18T02:46:41.694Z,17.10
2018-06-18T02:49:10.130Z,17.10
2018-06-18T02:51:38.677Z,17.00
2018-06-18T02:54:08.237Z,17.00
2018-06-18T02:56:46.145Z,16.90
2018-06-18T02:59:14.549Z,17.00
2018-06-18T03:04:11.098Z,16.80
2018-06-18T03:09:09.504Z,16.80
2018-06-18T03:14:06.532Z,16.90
2018-06-18T03:16:35.100Z,16.90
2018-06-18T03:19:08.829Z,17.00
2018-06-18T03:21:42.543Z,16.90
2018-06-18T03:24:13.145Z,16.90
2018-06-18T03:26:46.857Z,16.90
2018-06-18T03:29:17.288Z,16.90
2018-06-18T03:31:46.172Z,16.90
2018-06-18T03:34:14.632Z,16.80
2018-06-18T03:36:44.081Z,16.90
2018-06-18T03:39:13.967Z,16.90
2018-06-18T03:41:47.504Z,16.90
2018-06-18T03:44:26.037Z,17.00
2018-06-18T03:46:55.209Z,17.00
2018-06-18T03:49:23.621Z,17.00
2018-06-18T03:51:52.032Z,17.00
2018-06-18T03:54:20.469Z,17.10
2018-06-18T03:56:48.866Z,17.00
2018-06-18T03:59:17.284Z,17.10
2018-06-18T04:02:14.844Z,17.10
2018-06-18T04:04:56.780Z,17.00
2018-06-18T04:07:38.996Z,17.20
2018-06-18T04:10:12.809Z,17.10
2018-06-18T04:12:41.273Z,17.10
2018-06-18T04:15:09.752Z,17.20
2018-06-18T04:17:38.160Z,17.20
2018-06-18T04:20:07.113Z,17.40
2018-06-18T04:22:35.544Z,17.40
2018-06-18T04:25:04.009Z,17.30
2018-06-18T04:27:32.456Z,17.30
2018-06-18T04:30:00.869Z,17.30
2018-06-18T04:32:29.272Z,17.30
2018-06-18T04:34:59.428Z,17.20
2018-06-18T04:37:27.854Z,17.30
2018-06-18T04:42:29.680Z,17.30
2018-06-18T04:45:03.533Z,17.30
2018-06-18T04:50:10.997Z,17.50
2018-06-18T04:52:39.408Z,17.50
2018-06-18T04:57:35.952Z,17.40
2018-06-18T05:01:29.124Z,17.30
2018-06-18T05:06:27.149Z,17.50
2018-06-18T05:09:17.333Z,17.40
2018-06-18T05:11:45.744Z,17.50
2018-06-18T05:14:14.144Z,17.60
2018-06-18T05:16:42.671Z,17.60
2018-06-18T05:19:11.089Z,17.70
2018-06-18T05:21:39.505Z,17.60
2018-06-18T05:24:07.921Z,17.60
2018-06-18T05:26:39.149Z,17.90
2018-06-18T05:29:07.561Z,17.80
2018-06-18T05:31:35.973Z,17.90
2018-06-18T05:34:04.392Z,17.90
2018-06-18T05:36:32.795Z,17.80
2018-06-18T05:39:01.217Z,17.70
2018-06-18T05:41:29.627Z,17.80
2018-06-18T05:43:58.049Z,17.80
2018-06-18T05:48:54.600Z,18.00
2018-06-18T05:53:51.124Z,18.50
2018-06-18T05:56:19.559Z,18.60
2018-06-18T05:58:47.982Z,18.60
2018-06-18T06:01:16.401Z,18.70
2018-06-18T06:03:44.825Z,18.80
2018-06-18T06:06:13.348Z,18.80
2018-06-18T06:08:41.797Z,19.00
2018-06-18T06:11:10.201Z,19.00
2018-06-18T06:16:06.721Z,19.40
2018-06-18T06:18:35.130Z,19.50
2018-06-18T06:21:06.468Z,19.50
2018-06-18T06:26:03.026Z,19.50
2018-06-18T06:30:59.531Z,19.40
2018-06-18T06:33:28.140Z,19.50
2018-06-18T06:35:58.193Z,19.70
2018-06-18T06:38:26.613Z,19.90
2018-06-18T06:40:55.035Z,20.10
2018-06-18T06:43:23.471Z,20.50
2018-06-18T06:45:51.884Z,21.10
2018-06-18T06:50:48.410Z,21.70
2018-06-18T06:53:16.813Z,21.40
2018-06-18T06:58:13.332Z,21.00
2018-06-18T07:00:41.774Z,21.30
2018-06-18T07:03:10.190Z,20.90
2018-06-18T07:05:38.629Z,20.90
2018-06-18T07:08:07.070Z,21.10
2018-06-18T07:10:35.501Z,21.00
2018-06-18T07:13:03.938Z,20.50
2018-06-18T07:15:32.364Z,20.10
2018-06-18T07:18:00.942Z,20.00
2018-06-18T07:20:29.353Z,19.90
2018-06-18T07:22:57.780Z,20.00
2018-06-18T07:27:54.341Z,19.80
2018-06-18T07:30:22.819Z,19.60
2018-06-18T07:35:19.289Z,19.60
2018-06-18T07:37:47.712Z,19.50
2018-06-18T07:40:16.161Z,19.70
2018-06-18T07:42:44.598Z,19.70
2018-06-18T07:45:13.000Z,19.70
2018-06-18T07:47:41.440Z,19.60
2018-06-18T07:50:09.860Z,19.80
2018-06-18T07:52:38.280Z,19.60
2018-06-18T07:55:06.708Z,19.60
2018-06-18T07:57:35.202Z,19.70
2018-06-18T08:00:03.645Z,19.70
2018-06-18T08:02:32.111Z,19.80
2018-06-18T08:05:00.524Z,19.90
2018-06-18T08:07:28.963Z,20.00
2018-06-18T08:09:57.430Z,20.10
2018-06-18T08:12:25.819Z,20.00
2018-06-18T08:14:54.248Z,20.00
2018-06-18T08:17:22.661Z,20.00
2018-06-18T08:19:51.084Z,20.20
2018-06-18T08:22:19.673Z,20.50
2018-06-18T08:24:49.601Z,20.70
2018-06-18T08:27:18.078Z,20.90
2018-06-18T08:29:46.573Z,21.20
2018-06-18T08:34:43.372Z,21.20
2018-06-18T08:37:11.785Z,21.40
2018-06-18T08:39:40.281Z,21.50
2018-06-18T08:42:08.732Z,21.40
2018-06-18T08:44:37.136Z,21.60
2018-06-18T08:47:05.945Z,21.60
2018-06-18T08:49:38.616Z,21.50
2018-06-18T08:54:46.001Z,21.40
2018-06-18T08:57:19.921Z,21.50
2018-06-18T09:02:27.289Z,22.40
2018-06-18T09:05:01.030Z,22.90
2018-06-18T09:10:00.533Z,22.90
2018-06-18T09:12:29.044Z,23.40
2018-06-18T09:14:57.457Z,23.90
2018-06-18T09:17:25.877Z,23.90
2018-06-18T09:19:54.292Z,23.90
2018-06-18T09:22:22.709Z,23.20
2018-06-18T09:24:51.123Z,22.80
2018-06-18T09:27:19.537Z,22.90
2018-06-18T09:29:53.169Z,22.50
2018-06-18T09:32:21.822Z,22.20
2018-06-18T09:34:50.025Z,21.90
2018-06-18T09:37:18.454Z,21.80
2018-06-18T09:39:46.868Z,21.90
2018-06-18T09:42:15.268Z,21.90
2018-06-18T09:44:43.705Z,21.90
2018-06-18T09:47:12.112Z,21.90
2018-06-18T09:49:45.865Z,22.00
2018-06-18T09:52:19.696Z,22.00
2018-06-18T09:54:53.354Z,22.30
2018-06-18T10:00:00.669Z,22.10
2018-06-18T10:02:29.322Z,22.10
2018-06-18T10:04:59.238Z,22.30
2018-06-18T10:07:27.665Z,22.30
2018-06-18T10:09:56.699Z,22.00
2018-06-18T10:12:25.356Z,21.90
2018-06-18T10:14:53.797Z,21.80
2018-06-18T10:17:22.204Z,21.70
2018-06-18T10:19:51.747Z,21.80
2018-06-18T10:22:20.230Z,21.70
2018-06-18T10:24:48.716Z,21.80
2018-06-18T10:27:17.152Z,22.10
2018-06-18T10:29:45.681Z,22.20
2018-06-18T10:35:51.485Z,23.10
2018-06-18T10:38:25.328Z,24.10
2018-06-18T10:40:59.110Z,25.70
2018-06-18T10:43:35.425Z,25.80
2018-06-18T10:48:32.045Z,27.20
2018-06-18T10:51:00.473Z,27.00
2018-06-18T10:53:28.888Z,25.70
2018-06-18T10:55:57.384Z,24.60
2018-06-18T10:58:25.865Z,23.40
2018-06-18T11:01:00.572Z,23.10
2018-06-18T11:03:29.010Z,23.00
2018-06-18T11:06:02.728Z,23.20
2018-06-18T11:08:31.181Z,23.30
2018-06-18T11:10:59.592Z,23.10
2018-06-18T11:13:28.357Z,22.90
2018-06-18T11:15:58.290Z,23.10
2018-06-18T11:18:31.889Z,23.00
2018-06-18T11:21:05.545Z,23.10
2018-06-18T11:26:12.516Z,22.90
2018-06-18T11:28:41.024Z,23.00
2018-06-18T11:31:09.442Z,23.10
2018-06-18T11:33:37.872Z,23.10
2018-06-18T11:36:06.533Z,23.10
2018-06-18T11:38:34.961Z,23.00
2018-06-18T11:41:03.404Z,23.00
2018-06-18T11:43:31.850Z,23.20
2018-06-18T11:46:00.274Z,23.10
2018-06-18T11:48:28.773Z,23.10
2018-06-18T11:50:57.225Z,23.00
2018-06-18T11:53:25.670Z,22.80
2018-06-18T11:55:54.529Z,22.70
2018-06-18T11:58:28.348Z,22.60
2018-06-18T12:01:02.220Z,22.80
2018-06-18T12:03:35.893Z,23.00
2018-06-18T12:06:09.697Z,22.80
2018-06-18T12:08:43.506Z,23.00
2018-06-18T12:11:11.977Z,23.20
2018-06-18T12:13:40.416Z,23.20
2018-06-18T12:16:08.825Z,23.00
2018-06-18T12:18:37.266Z,23.00
2018-06-18T12:21:05.720Z,22.90
2018-06-18T12:23:34.140Z,22.90
2018-06-18T12:26:02.563Z,23.00
2018-06-18T12:28:30.989Z,23.10
2018-06-18T12:30:59.421Z,23.10
2018-06-18T12:35:56.021Z,23.30
2018-06-18T12:38:24.729Z,23.20
2018-06-18T12:40:53.500Z,23.20
2018-06-18T12:43:23.721Z,23.10
2018-06-18T12:45:59.012Z,23.30
2018-06-18T12:48:32.933Z,23.40
2018-06-18T12:51:06.633Z,23.20
2018-06-18T12:53:40.396Z,22.90
2018-06-18T12:56:14.225Z,23.00
2018-06-18T12:58:42.684Z,23.00
2018-06-18T13:01:12.733Z,23.00
2018-06-18T13:03:41.156Z,23.00
2018-06-18T13:06:09.575Z,23.20
2018-06-18T13:08:38.742Z,23.50
2018-06-18T13:11:07.217Z,23.80
2018-06-18T13:13:35.664Z,24.20
2018-06-18T13:16:04.144Z,24.20
2018-06-18T13:18:32.805Z,24.20
2018-06-18T13:21:01.234Z,24.60
2018-06-18T13:23:29.720Z,24.40
2018-06-18T13:25:58.125Z,24.40
2018-06-18T13:28:26.605Z,24.40
2018-06-18T13:33:24.132Z,24.40
2018-06-18T13:35:52.637Z,24.60
2018-06-18T13:38:26.420Z,24.60
2018-06-18T13:40:59.961Z,24.60
2018-06-18T13:46:08.042Z,24.00
2018-06-18T13:48:41.741Z,23.60
2018-06-18T13:51:10.481Z,23.20
2018-06-18T13:53:38.897Z,23.20
2018-06-18T13:56:07.318Z,23.20
2018-06-18T13:58:36.175Z,23.00
2018-06-18T14:01:04.594Z,23.00
2018-06-18T14:03:33.027Z,23.00
2018-06-18T14:06:01.437Z,23.00
2018-06-18T14:10:58.412Z,22.90
2018-06-18T14:13:26.874Z,22.90
2018-06-18T14:15:55.297Z,22.90
2018-06-18T14:18:23.721Z,22.90
2018-06-18T14:20:52.153Z,22.90
2018-06-18T14:23:20.565Z,22.90
2018-06-18T14:25:49.099Z,23.10
2018-06-18T14:28:17.534Z,23.10
2018-06-18T14:30:51.261Z,23.40
2018-06-18T14:33:24.923Z,23.30
2018-06-18T14:35:58.596Z,23.30
2018-06-18T14:38:32.348Z,23.50
2018-06-18T14:41:00.810Z,23.60
2018-06-18T14:43:29.237Z,23.50
2018-06-18T14:45:57.762Z,23.40
2018-06-18T14:48:26.237Z,23.40
2018-06-18T14:50:54.587Z,23.50
2018-06-18T14:53:23.138Z,23.60
2018-06-18T14:56:11.270Z,23.60
2018-06-18T14:58:40.181Z,23.70
2018-06-18T15:01:08.586Z,23.80
2018-06-18T15:03:37.057Z,23.80
2018-06-18T15:06:05.457Z,23.80
2018-06-18T15:08:33.893Z,24.00
2018-06-18T15:11:02.305Z,24.40
2018-06-18T15:13:30.744Z,24.80
2018-06-18T15:16:04.631Z,25.10
2018-06-18T15:18:33.065Z,25.10
2018-06-18T15:21:02.890Z,25.00
2018-06-18T15:23:31.346Z,25.00
2018-06-18T15:25:59.772Z,24.90
2018-06-18T15:28:28.186Z,24.90
2018-06-18T15:30:56.609Z,24.90
2018-06-18T15:33:25.035Z,24.90
2018-06-18T15:35:53.472Z,24.90
2018-06-18T15:38:21.972Z,24.80
2018-06-18T15:40:50.321Z,25.00
2018-06-18T15:43:18.724Z,25.00
2018-06-18T15:48:15.248Z,24.40
2018-06-18T15:50:43.684Z,24.10
2018-06-18T15:53:12.109Z,24.00
2018-06-18T15:55:40.565Z,23.80
2018-06-18T15:58:08.968Z,23.60
2018-06-18T16:00:37.417Z,23.60
2018-06-18T16:03:05.836Z,23.80
2018-06-18T16:05:34.268Z,23.90
2018-06-18T16:08:02.793Z,24.00
2018-06-18T16:10:31.213Z,24.00
2018-06-18T16:13:00.317Z,23.70
2018-06-18T16:15:28.740Z,23.50
2018-06-18T16:17:57.187Z,23.40
2018-06-18T16:20:25.597Z,23.50
2018-06-18T16:22:54.398Z,23.70
2018-06-18T16:25:22.829Z,23.80
2018-06-18T16:27:51.254Z,23.90
2018-06-18T16:30:19.677Z,24.00
2018-06-18T16:32:48.112Z,24.00
2018-06-18T16:35:16.543Z,24.10
2018-06-18T16:37:45.014Z,24.20
2018-06-18T16:40:13.444Z,24.20
2018-06-18T16:45:10.041Z,24.30
2018-06-18T16:47:38.576Z,24.50
2018-06-18T16:50:07.024Z,24.30
2018-06-18T16:52:36.269Z,24.10
2018-06-18T16:55:04.821Z,23.90
2018-06-18T16:57:33.313Z,23.70
2018-06-18T17:00:01.785Z,23.60
2018-06-18T17:02:30.247Z,23.50
2018-06-18T17:04:58.736Z,23.40
2018-06-18T17:07:27.180Z,23.40
2018-06-18T17:09:55.746Z,23.50
2018-06-18T17:12:24.173Z,23.60
2018-06-18T17:14:52.680Z,23.60
2018-06-18T17:17:21.113Z,23.60
2018-06-18T17:19:49.550Z,23.70
2018-06-18T17:22:18.013Z,23.60
2018-06-18T17:24:46.431Z,23.60
2018-06-18T17:27:14.880Z,23.60
2018-06-18T17:29:43.340Z,23.60
2018-06-18T17:32:11.769Z,23.70
2018-06-18T17:34:40.248Z,23.70
2018-06-18T17:37:08.681Z,23.60
2018-06-18T17:39:37.110Z,23.50
2018-06-18T17:42:05.577Z,23.40
2018-06-18T17:44:35.017Z,23.30
2018-06-18T17:47:03.883Z,23.10
2018-06-18T17:49:32.664Z,23.00
2018-06-18T17:52:01.346Z,23.00
2018-06-18T17:54:30.192Z,23.00
2018-06-18T17:56:59.037Z,23.00
2018-06-18T17:59:28.109Z,22.90
2018-06-18T18:01:56.833Z,22.80
2018-06-18T18:04:25.784Z,22.80
2018-06-18T18:06:54.414Z,22.80
2018-06-18T18:09:23.311Z,22.80
2018-06-18T18:11:51.946Z,22.90
2018-06-18T18:14:20.595Z,22.80
2018-06-18T18:16:49.086Z,22.90
2018-06-18T18:19:17.533Z,22.90
2018-06-18T18:21:45.956Z,22.90
2018-06-18T18:24:14.429Z,22.90
2018-06-18T18:26:42.902Z,22.90
2018-06-18T18:29:11.348Z,22.80
2018-06-18T18:31:39.769Z,22.80
2018-06-18T18:34:08.205Z,22.90
2018-06-18T18:36:36.617Z,22.90
2018-06-18T18:39:07.822Z,22.90
2018-06-18T18:44:04.437Z,22.90
2018-06-18T18:46:32.864Z,22.80
2018-06-18T18:49:01.285Z,22.80
2018-06-18T18:51:29.757Z,22.80
2018-06-18T18:53:58.439Z,22.70
2018-06-18T18:57:48.641Z,22.60
2018-06-18T19:00:17.064Z,22.50
2018-06-18T19:05:13.595Z,22.20
2018-06-18T19:07:44.117Z,22.10
2018-06-18T19:10:18.841Z,22.00
2018-06-18T19:12:47.457Z,21.90
2018-06-18T19:15:15.944Z,21.80
2018-06-18T19:17:44.401Z,21.70
2018-06-18T19:22:42.528Z,21.60
2018-06-18T19:25:11.050Z,21.60
2018-06-18T19:27:39.453Z,21.50
2018-06-18T19:32:36.706Z,21.40
2018-06-18T19:35:05.331Z,21.30
2018-06-18T19:37:33.769Z,21.20
2018-06-18T19:40:02.226Z,21.10
2018-06-18T19:42:30.697Z,21.00
2018-06-18T19:44:59.179Z,21.00
2018-06-18T19:47:33.999Z,21.00
2018-06-18T19:50:02.508Z,21.00
2018-06-18T19:52:31.177Z,20.90
2018-06-18T19:55:02.767Z,20.80
2018-06-18T19:57:31.613Z,20.70
2018-06-18T20:00:00.115Z,20.60
2018-06-18T20:02:28.730Z,20.60
2018-06-18T20:04:57.165Z,20.60
2018-06-18T20:07:26.522Z,20.40
2018-06-18T20:09:55.060Z,20.40
2018-06-18T20:14:51.643Z,20.30
2018-06-18T20:17:20.149Z,20.30
2018-06-18T20:19:48.616Z,20.20
2018-06-18T20:22:17.141Z,20.20
2018-06-18T20:24:46.488Z,20.20
2018-06-18T20:27:15.367Z,20.30
2018-06-18T20:29:43.854Z,20.30
2018-06-18T20:32:12.617Z,20.40
2018-06-18T20:39:37.984Z,20.40
2018-06-18T20:42:06.618Z,20.30
2018-06-18T20:44:35.160Z,20.20
2018-06-18T20:47:03.665Z,20.20
2018-06-18T20:49:32.165Z,20.20
2018-06-18T20:52:00.613Z,20.20
2018-06-18T20:54:29.101Z,20.10
2018-06-18T20:56:57.645Z,20.10
2018-06-18T21:01:54.209Z,19.90
2018-06-18T21:04:22.656Z,19.90
2018-06-18T21:06:51.313Z,19.80
2018-06-18T21:09:19.827Z,19.70
2018-06-18T21:11:48.336Z,19.70
2018-06-18T21:14:16.798Z,19.80
2018-06-18T21:16:47.184Z,19.70
2018-06-18T21:19:16.033Z,19.60
2018-06-18T21:21:44.516Z,19.60
2018-06-18T21:24:12.981Z,19.50
2018-06-18T21:26:41.423Z,19.50
2018-06-18T21:29:10.084Z,19.50
2018-06-18T21:34:06.709Z,19.50
2018-06-18T21:36:35.139Z,19.50
2018-06-18T21:39:04.641Z,19.50
2018-06-18T21:44:01.318Z,19.60
2018-06-18T21:46:29.754Z,19.50
2018-06-18T21:48:58.267Z,19.50
2018-06-18T21:51:26.716Z,19.40
2018-06-18T21:53:55.168Z,19.40
2018-06-18T21:56:23.633Z,19.50
2018-06-18T21:58:52.267Z,19.40
2018-06-18T22:03:54.441Z,19.40
2018-06-18T22:13:47.425Z,19.30
2018-06-18T22:18:43.968Z,19.10
2018-06-18T22:21:12.420Z,19.10
2018-06-18T22:23:40.897Z,19.00
2018-06-18T22:26:09.336Z,19.00
2018-06-18T22:28:39.985Z,18.90
2018-06-18T22:31:08.469Z,18.90
2018-06-18T22:33:36.941Z,19.00
2018-06-18T22:36:05.378Z,19.00
2018-06-18T22:41:01.973Z,19.10
2018-06-18T22:43:30.421Z,19.10
2018-06-18T22:48:26.969Z,18.90
2018-06-18T22:53:23.549Z,18.80
2018-06-18T22:55:51.981Z,18.60
2018-06-18T22:58:20.389Z,18.50
2018-06-18T23:00:52.569Z,18.50
2018-06-18T23:03:20.967Z,18.40
2018-06-18T23:05:49.757Z,18.40
2018-06-18T23:08:18.236Z,18.30
2018-06-18T23:10:46.728Z,18.30
2018-06-18T23:13:16.213Z,18.30
2018-06-18T23:15:44.669Z,18.20
2018-06-18T23:18:13.084Z,18.10
2018-06-18T23:20:41.526Z,18.00
2018-06-18T23:23:09.921Z,18.00
2018-06-18T23:25:38.369Z,17.90
2018-06-18T23:28:06.785Z,17.80
2018-06-18T23:30:35.197Z,17.80
2018-06-18T23:33:03.676Z,17.80
2018-06-18T23:35:32.109Z,17.70
2018-06-18T23:38:00.596Z,17.70
2018-06-18T23:40:29.026Z,17.60
2018-06-18T23:45:25.550Z,17.50
2018-06-18T23:47:54.005Z,17.50
2018-06-18T23:50:22.433Z,17.40
2018-06-18T23:55:19.010Z,17.30
2018-06-18T23:57:47.597Z,17.20
